sensor_id;sensor_type;location;lat;lon;timestamp;P1;durP1;ratioP1;P2;durP2;ratioP2
20611;SDS011;10465;42.686;23.364;2023-07-13T00:01:57;7.15;;;4.60;;
20611;SDS011;10465;42.686;23.364;2023-07-13T00:04:23;5.30;;;4.80;;
20611;SDS011;10465;42.686;23.364;2023-07-13T00:06:50;6.65;;;4.35;;
20611;SDS011;10465;42.686;23.364;2023-07-13T00:09:17;6.93;;;5.28;;
20611;SDS011;10465;42.686;23.364;2023-07-13T00:11:44;7.00;;;4.75;;
20611;SDS011;10465;42.686;23.364;2023-07-13T00:14:12;5.22;;;4.68;;
20611;SDS011;10465;42.686;23.364;2023-07-13T00:16:38;7.38;;;5.05;;
20611;SDS011;10465;42.686;23.364;2023-07-13T00:19:06;5.65;;;5.15;;
20611;SDS011;10465;42.686;23.364;2023-07-13T00:21:31;11.00;;;5.38;;
20611;SDS011;10465;42.686;23.364;2023-07-13T00:23:57;8.45;;;5.32;;
20611;SDS011;10465;42.686;23.364;2023-07-13T00:26:22;8.30;;;5.65;;
20611;SDS011;10465;42.686;23.364;2023-07-13T00:28:48;7.00;;;5.15;;
20611;SDS011;10465;42.686;23.364;2023-07-13T00:31:13;6.60;;;5.65;;
20611;SDS011;10465;42.686;23.364;2023-07-13T00:33:40;7.65;;;5.05;;
20611;SDS011;10465;42.686;23.364;2023-07-13T00:36:07;8.13;;;6.07;;
20611;SDS011;10465;42.686;23.364;2023-07-13T00:38:33;9.02;;;5.50;;
20611;SDS011;10465;42.686;23.364;2023-07-13T00:40:59;8.25;;;5.80;;
20611;SDS011;10465;42.686;23.364;2023-07-13T00:43:25;8.13;;;5.22;;
20611;SDS011;10465;42.686;23.364;2023-07-13T00:48:21;10.45;;;5.90;;
20611;SDS011;10465;42.686;23.364;2023-07-13T00:50:52;7.95;;;6.45;;
20611;SDS011;10465;42.686;23.364;2023-07-13T00:53:20;7.05;;;5.72;;
20611;SDS011;10465;42.686;23.364;2023-07-13T00:55:46;6.47;;;5.70;;
20611;SDS011;10465;42.686;23.364;2023-07-13T00:58:13;7.80;;;5.93;;
20611;SDS011;10465;42.686;23.364;2023-07-13T01:00:39;7.53;;;5.80;;
20611;SDS011;10465;42.686;23.364;2023-07-13T01:03:05;7.47;;;5.70;;
20611;SDS011;10465;42.686;23.364;2023-07-13T01:05:32;8.68;;;5.93;;
20611;SDS011;10465;42.686;23.364;2023-07-13T01:07:59;10.07;;;6.00;;
20611;SDS011;10465;42.686;23.364;2023-07-13T01:10:26;7.05;;;5.97;;
20611;SDS011;10465;42.686;23.364;2023-07-13T01:12:52;8.13;;;5.45;;
20611;SDS011;10465;42.686;23.364;2023-07-13T01:15:39;6.03;;;5.40;;
20611;SDS011;10465;42.686;23.364;2023-07-13T01:18:07;7.82;;;5.80;;
20611;SDS011;10465;42.686;23.364;2023-07-13T01:20:35;6.20;;;5.60;;
20611;SDS011;10465;42.686;23.364;2023-07-13T01:23:02;7.05;;;5.40;;
20611;SDS011;10465;42.686;23.364;2023-07-13T01:25:32;6.45;;;5.82;;
20611;SDS011;10465;42.686;23.364;2023-07-13T01:27:57;10.25;;;6.05;;
20611;SDS011;10465;42.686;23.364;2023-07-13T01:30:23;10.35;;;6.15;;
20611;SDS011;10465;42.686;23.364;2023-07-13T01:32:48;11.27;;;5.97;;
20611;SDS011;10465;42.686;23.364;2023-07-13T01:35:14;10.73;;;6.50;;
20611;SDS011;10465;42.686;23.364;2023-07-13T01:37:41;8.68;;;6.03;;
20611;SDS011;10465;42.686;23.364;2023-07-13T01:40:07;7.53;;;6.10;;
20611;SDS011;10465;42.686;23.364;2023-07-13T01:42:33;8.40;;;6.65;;
20611;SDS011;10465;42.686;23.364;2023-07-13T01:44:59;7.38;;;6.15;;
20611;SDS011;10465;42.686;23.364;2023-07-13T01:47:25;8.15;;;6.90;;
20611;SDS011;10465;42.686;23.364;2023-07-13T01:49:51;6.53;;;5.75;;
20611;SDS011;10465;42.686;23.364;2023-07-13T01:52:16;8.50;;;6.28;;
20611;SDS011;10465;42.686;23.364;2023-07-13T01:54:43;7.80;;;5.72;;
20611;SDS011;10465;42.686;23.364;2023-07-13T01:57:08;6.68;;;5.90;;
20611;SDS011;10465;42.686;23.364;2023-07-13T01:59:33;9.25;;;5.55;;
20611;SDS011;10465;42.686;23.364;2023-07-13T02:01:59;9.40;;;6.40;;
20611;SDS011;10465;42.686;23.364;2023-07-13T02:04:24;7.45;;;5.32;;
20611;SDS011;10465;42.686;23.364;2023-07-13T02:06:50;8.07;;;5.55;;
20611;SDS011;10465;42.686;23.364;2023-07-13T02:09:15;7.70;;;5.63;;
20611;SDS011;10465;42.686;23.364;2023-07-13T02:11:41;8.23;;;5.88;;
20611;SDS011;10465;42.686;23.364;2023-07-13T02:14:06;9.65;;;6.25;;
20611;SDS011;10465;42.686;23.364;2023-07-13T02:16:32;7.63;;;5.82;;
20611;SDS011;10465;42.686;23.364;2023-07-13T02:18:57;7.82;;;6.00;;
20611;SDS011;10465;42.686;23.364;2023-07-13T02:21:23;7.93;;;5.88;;
20611;SDS011;10465;42.686;23.364;2023-07-13T02:23:49;6.65;;;5.90;;
20611;SDS011;10465;42.686;23.364;2023-07-13T02:26:15;8.90;;;6.05;;
20611;SDS011;10465;42.686;23.364;2023-07-13T02:28:41;8.88;;;6.05;;
20611;SDS011;10465;42.686;23.364;2023-07-13T02:31:11;8.93;;;5.70;;
20611;SDS011;10465;42.686;23.364;2023-07-13T02:33:38;9.50;;;6.53;;
20611;SDS011;10465;42.686;23.364;2023-07-13T02:36:04;7.18;;;6.07;;
20611;SDS011;10465;42.686;23.364;2023-07-13T02:38:31;8.77;;;6.25;;
20611;SDS011;10465;42.686;23.364;2023-07-13T02:40:59;9.55;;;6.13;;
20611;SDS011;10465;42.686;23.364;2023-07-13T02:43:24;7.10;;;6.40;;
20611;SDS011;10465;42.686;23.364;2023-07-13T02:45:50;7.65;;;6.68;;
20611;SDS011;10465;42.686;23.364;2023-07-13T02:48:16;6.50;;;5.55;;
20611;SDS011;10465;42.686;23.364;2023-07-13T02:50:42;6.57;;;5.78;;
20611;SDS011;10465;42.686;23.364;2023-07-13T02:53:09;8.98;;;6.22;;
20611;SDS011;10465;42.686;23.364;2023-07-13T02:55:34;7.53;;;6.72;;
20611;SDS011;10465;42.686;23.364;2023-07-13T02:58:00;8.65;;;6.65;;
20611;SDS011;10465;42.686;23.364;2023-07-13T03:00:26;11.85;;;6.78;;
20611;SDS011;10465;42.686;23.364;2023-07-13T03:02:52;10.82;;;7.90;;
20611;SDS011;10465;42.686;23.364;2023-07-13T03:05:18;8.90;;;8.00;;
20611;SDS011;10465;42.686;23.364;2023-07-13T03:07:43;12.95;;;7.90;;
20611;SDS011;10465;42.686;23.364;2023-07-13T03:10:09;11.88;;;8.55;;
20611;SDS011;10465;42.686;23.364;2023-07-13T03:12:35;10.43;;;8.38;;
20611;SDS011;10465;42.686;23.364;2023-07-13T03:15:00;10.85;;;8.40;;
20611;SDS011;10465;42.686;23.364;2023-07-13T03:17:26;12.90;;;8.73;;
20611;SDS011;10465;42.686;23.364;2023-07-13T03:19:51;12.82;;;9.20;;
20611;SDS011;10465;42.686;23.364;2023-07-13T03:22:17;11.07;;;9.05;;
20611;SDS011;10465;42.686;23.364;2023-07-13T03:24:43;12.23;;;9.60;;
20611;SDS011;10465;42.686;23.364;2023-07-13T03:27:09;10.80;;;9.05;;
20611;SDS011;10465;42.686;23.364;2023-07-13T03:29:35;13.13;;;9.10;;
20611;SDS011;10465;42.686;23.364;2023-07-13T03:32:00;13.38;;;9.57;;
20611;SDS011;10465;42.686;23.364;2023-07-13T03:34:26;11.27;;;9.35;;
20611;SDS011;10465;42.686;23.364;2023-07-13T03:36:53;14.10;;;9.30;;
20611;SDS011;10465;42.686;23.364;2023-07-13T03:39:20;13.20;;;9.95;;
20611;SDS011;10465;42.686;23.364;2023-07-13T03:41:45;12.93;;;9.43;;
20611;SDS011;10465;42.686;23.364;2023-07-13T03:44:11;11.70;;;9.82;;
20611;SDS011;10465;42.686;23.364;2023-07-13T03:46:37;12.55;;;9.85;;
20611;SDS011;10465;42.686;23.364;2023-07-13T03:49:03;14.95;;;9.90;;
20611;SDS011;10465;42.686;23.364;2023-07-13T03:51:29;10.77;;;9.63;;
20611;SDS011;10465;42.686;23.364;2023-07-13T03:53:55;13.38;;;9.90;;
20611;SDS011;10465;42.686;23.364;2023-07-13T03:56:21;11.48;;;9.43;;
20611;SDS011;10465;42.686;23.364;2023-07-13T03:58:47;12.75;;;10.20;;
20611;SDS011;10465;42.686;23.364;2023-07-13T04:01:15;18.35;;;10.23;;
20611;SDS011;10465;42.686;23.364;2023-07-13T04:03:42;12.57;;;9.50;;
20611;SDS011;10465;42.686;23.364;2023-07-13T04:06:12;12.48;;;9.75;;
20611;SDS011;10465;42.686;23.364;2023-07-13T04:08:46;12.65;;;10.45;;
20611;SDS011;10465;42.686;23.364;2023-07-13T04:11:13;13.90;;;9.85;;
20611;SDS011;10465;42.686;23.364;2023-07-13T04:13:38;14.95;;;11.23;;
20611;SDS011;10465;42.686;23.364;2023-07-13T04:16:04;15.00;;;10.05;;
20611;SDS011;10465;42.686;23.364;2023-07-13T04:18:29;12.77;;;9.82;;
20611;SDS011;10465;42.686;23.364;2023-07-13T04:20:54;10.20;;;9.20;;
20611;SDS011;10465;42.686;23.364;2023-07-13T04:23:20;12.88;;;10.20;;
20611;SDS011;10465;42.686;23.364;2023-07-13T04:25:46;12.70;;;10.63;;
20611;SDS011;10465;42.686;23.364;2023-07-13T04:28:14;13.32;;;10.77;;
20611;SDS011;10465;42.686;23.364;2023-07-13T04:30:40;12.20;;;10.18;;
20611;SDS011;10465;42.686;23.364;2023-07-13T04:33:06;13.63;;;10.43;;
20611;SDS011;10465;42.686;23.364;2023-07-13T04:35:33;11.63;;;10.40;;
20611;SDS011;10465;42.686;23.364;2023-07-13T04:38:00;11.32;;;10.13;;
20611;SDS011;10465;42.686;23.364;2023-07-13T04:40:26;13.48;;;10.15;;
20611;SDS011;10465;42.686;23.364;2023-07-13T04:42:53;13.10;;;10.38;;
20611;SDS011;10465;42.686;23.364;2023-07-13T04:45:18;12.50;;;10.40;;
20611;SDS011;10465;42.686;23.364;2023-07-13T04:47:44;16.30;;;10.50;;
20611;SDS011;10465;42.686;23.364;2023-07-13T04:50:12;14.60;;;10.85;;
20611;SDS011;10465;42.686;23.364;2023-07-13T04:52:43;16.92;;;12.60;;
20611;SDS011;10465;42.686;23.364;2023-07-13T04:55:09;22.80;;;13.93;;
20611;SDS011;10465;42.686;23.364;2023-07-13T04:57:35;24.30;;;13.73;;
20611;SDS011;10465;42.686;23.364;2023-07-13T05:00:01;17.83;;;13.70;;
20611;SDS011;10465;42.686;23.364;2023-07-13T05:02:30;19.27;;;12.43;;
20611;SDS011;10465;42.686;23.364;2023-07-13T05:04:56;13.82;;;11.82;;
20611;SDS011;10465;42.686;23.364;2023-07-13T05:07:22;17.70;;;12.32;;
20611;SDS011;10465;42.686;23.364;2023-07-13T05:09:47;27.67;;;18.58;;
20611;SDS011;10465;42.686;23.364;2023-07-13T05:12:13;18.55;;;14.68;;
20611;SDS011;10465;42.686;23.364;2023-07-13T05:14:38;16.55;;;12.23;;
20611;SDS011;10465;42.686;23.364;2023-07-13T05:17:04;18.38;;;12.35;;
20611;SDS011;10465;42.686;23.364;2023-07-13T05:19:29;26.10;;;19.90;;
20611;SDS011;10465;42.686;23.364;2023-07-13T05:21:55;16.38;;;13.13;;
20611;SDS011;10465;42.686;23.364;2023-07-13T05:24:20;19.63;;;14.18;;
20611;SDS011;10465;42.686;23.364;2023-07-13T05:26:46;14.63;;;13.07;;
20611;SDS011;10465;42.686;23.364;2023-07-13T05:29:11;14.40;;;12.05;;
20611;SDS011;10465;42.686;23.364;2023-07-13T05:31:36;22.05;;;14.25;;
20611;SDS011;10465;42.686;23.364;2023-07-13T05:34:02;25.10;;;18.15;;
20611;SDS011;10465;42.686;23.364;2023-07-13T05:36:27;19.63;;;14.93;;
20611;SDS011;10465;42.686;23.364;2023-07-13T05:38:53;20.73;;;15.00;;
20611;SDS011;10465;42.686;23.364;2023-07-13T05:41:18;18.35;;;13.05;;
20611;SDS011;10465;42.686;23.364;2023-07-13T05:43:44;15.60;;;12.55;;
20611;SDS011;10465;42.686;23.364;2023-07-13T05:46:09;14.70;;;12.82;;
20611;SDS011;10465;42.686;23.364;2023-07-13T05:48:35;21.50;;;12.68;;
20611;SDS011;10465;42.686;23.364;2023-07-13T05:51:00;17.65;;;12.95;;
20611;SDS011;10465;42.686;23.364;2023-07-13T05:53:26;18.52;;;14.38;;
20611;SDS011;10465;42.686;23.364;2023-07-13T05:55:53;18.27;;;12.82;;
20611;SDS011;10465;42.686;23.364;2023-07-13T05:58:19;19.20;;;12.55;;
20611;SDS011;10465;42.686;23.364;2023-07-13T06:00:45;17.70;;;14.10;;
20611;SDS011;10465;42.686;23.364;2023-07-13T06:03:11;16.55;;;12.80;;
20611;SDS011;10465;42.686;23.364;2023-07-13T06:05:37;15.85;;;13.00;;
20611;SDS011;10465;42.686;23.364;2023-07-13T06:08:03;17.13;;;13.23;;
20611;SDS011;10465;42.686;23.364;2023-07-13T06:10:32;14.27;;;11.52;;
20611;SDS011;10465;42.686;23.364;2023-07-13T06:12:58;16.13;;;10.88;;
20611;SDS011;10465;42.686;23.364;2023-07-13T06:15:23;12.30;;;9.88;;
20611;SDS011;10465;42.686;23.364;2023-07-13T06:17:49;16.33;;;12.20;;
20611;SDS011;10465;42.686;23.364;2023-07-13T06:20:14;15.63;;;12.07;;
20611;SDS011;10465;42.686;23.364;2023-07-13T06:22:40;14.75;;;9.73;;
20611;SDS011;10465;42.686;23.364;2023-07-13T06:25:05;11.40;;;9.55;;
20611;SDS011;10465;42.686;23.364;2023-07-13T06:27:31;15.93;;;9.68;;
20611;SDS011;10465;42.686;23.364;2023-07-13T06:29:57;15.43;;;9.75;;
20611;SDS011;10465;42.686;23.364;2023-07-13T06:32:22;13.85;;;10.70;;
20611;SDS011;10465;42.686;23.364;2023-07-13T06:34:48;14.90;;;9.93;;
20611;SDS011;10465;42.686;23.364;2023-07-13T06:37:13;17.77;;;12.32;;
20611;SDS011;10465;42.686;23.364;2023-07-13T06:39:38;19.08;;;10.48;;
20611;SDS011;10465;42.686;23.364;2023-07-13T06:42:05;13.23;;;10.32;;
20611;SDS011;10465;42.686;23.364;2023-07-13T06:44:31;14.07;;;10.55;;
20611;SDS011;10465;42.686;23.364;2023-07-13T06:46:56;11.98;;;10.02;;
20611;SDS011;10465;42.686;23.364;2023-07-13T06:49:22;13.70;;;12.00;;
20611;SDS011;10465;42.686;23.364;2023-07-13T06:51:47;13.43;;;9.80;;
20611;SDS011;10465;42.686;23.364;2023-07-13T06:54:13;12.65;;;9.48;;
20611;SDS011;10465;42.686;23.364;2023-07-13T06:56:39;12.32;;;10.30;;
20611;SDS011;10465;42.686;23.364;2023-07-13T06:59:04;13.32;;;10.27;;
20611;SDS011;10465;42.686;23.364;2023-07-13T07:01:29;11.95;;;9.68;;
20611;SDS011;10465;42.686;23.364;2023-07-13T07:03:55;16.08;;;10.18;;
20611;SDS011;10465;42.686;23.364;2023-07-13T07:06:20;13.57;;;11.05;;
20611;SDS011;10465;42.686;23.364;2023-07-13T07:08:49;13.68;;;10.07;;
20611;SDS011;10465;42.686;23.364;2023-07-13T07:11:20;13.75;;;11.32;;
20611;SDS011;10465;42.686;23.364;2023-07-13T07:13:48;14.73;;;10.23;;
20611;SDS011;10465;42.686;23.364;2023-07-13T07:16:14;17.17;;;10.27;;
20611;SDS011;10465;42.686;23.364;2023-07-13T07:18:39;13.95;;;9.65;;
20611;SDS011;10465;42.686;23.364;2023-07-13T07:21:05;17.65;;;11.10;;
20611;SDS011;10465;42.686;23.364;2023-07-13T07:23:30;12.30;;;9.73;;
20611;SDS011;10465;42.686;23.364;2023-07-13T07:25:56;14.80;;;9.98;;
20611;SDS011;10465;42.686;23.364;2023-07-13T07:28:22;15.20;;;9.60;;
20611;SDS011;10465;42.686;23.364;2023-07-13T07:30:48;13.02;;;9.70;;
20611;SDS011;10465;42.686;23.364;2023-07-13T07:33:14;16.17;;;10.85;;
20611;SDS011;10465;42.686;23.364;2023-07-13T07:35:41;13.38;;;9.50;;
20611;SDS011;10465;42.686;23.364;2023-07-13T07:38:08;13.15;;;10.93;;
20611;SDS011;10465;42.686;23.364;2023-07-13T07:40:37;12.27;;;10.45;;
20611;SDS011;10465;42.686;23.364;2023-07-13T07:43:05;13.30;;;9.63;;
20611;SDS011;10465;42.686;23.364;2023-07-13T07:45:30;11.82;;;10.40;;
20611;SDS011;10465;42.686;23.364;2023-07-13T07:47:56;14.57;;;9.45;;
20611;SDS011;10465;42.686;23.364;2023-07-13T07:50:24;10.75;;;9.52;;
20611;SDS011;10465;42.686;23.364;2023-07-13T07:52:50;12.60;;;9.90;;
20611;SDS011;10465;42.686;23.364;2023-07-13T07:55:16;13.27;;;9.32;;
20611;SDS011;10465;42.686;23.364;2023-07-13T07:57:41;11.65;;;9.23;;
20611;SDS011;10465;42.686;23.364;2023-07-13T08:00:07;12.18;;;9.23;;
20611;SDS011;10465;42.686;23.364;2023-07-13T08:02:32;12.07;;;8.73;;
20611;SDS011;10465;42.686;23.364;2023-07-13T08:04:58;14.43;;;9.73;;
20611;SDS011;10465;42.686;23.364;2023-07-13T08:07:23;14.75;;;9.63;;
20611;SDS011;10465;42.686;23.364;2023-07-13T08:09:51;13.60;;;9.23;;
20611;SDS011;10465;42.686;23.364;2023-07-13T08:12:17;13.75;;;9.52;;
20611;SDS011;10465;42.686;23.364;2023-07-13T08:14:43;13.00;;;9.40;;
20611;SDS011;10465;42.686;23.364;2023-07-13T08:17:08;12.68;;;9.52;;
20611;SDS011;10465;42.686;23.364;2023-07-13T08:19:34;15.30;;;9.60;;
20611;SDS011;10465;42.686;23.364;2023-07-13T08:21:59;18.80;;;10.07;;
20611;SDS011;10465;42.686;23.364;2023-07-13T08:24:24;13.90;;;9.48;;
20611;SDS011;10465;42.686;23.364;2023-07-13T08:26:50;12.57;;;9.45;;
20611;SDS011;10465;42.686;23.364;2023-07-13T08:29:16;16.48;;;10.57;;
20611;SDS011;10465;42.686;23.364;2023-07-13T08:31:42;15.82;;;10.23;;
20611;SDS011;10465;42.686;23.364;2023-07-13T08:34:07;12.55;;;9.63;;
20611;SDS011;10465;42.686;23.364;2023-07-13T08:36:33;16.95;;;10.18;;
20611;SDS011;10465;42.686;23.364;2023-07-13T08:38:58;12.35;;;9.48;;
20611;SDS011;10465;42.686;23.364;2023-07-13T08:41:24;13.40;;;9.73;;
20611;SDS011;10465;42.686;23.364;2023-07-13T08:43:54;14.70;;;10.63;;
20611;SDS011;10465;42.686;23.364;2023-07-13T08:46:25;12.60;;;9.95;;
20611;SDS011;10465;42.686;23.364;2023-07-13T08:48:58;16.13;;;10.43;;
20611;SDS011;10465;42.686;23.364;2023-07-13T08:54:14;15.05;;;10.63;;
20611;SDS011;10465;42.686;23.364;2023-07-13T08:56:56;16.05;;;9.80;;
20611;SDS011;10465;42.686;23.364;2023-07-13T08:59:27;11.70;;;10.20;;
20611;SDS011;10465;42.686;23.364;2023-07-13T09:04:42;14.50;;;9.88;;
20611;SDS011;10465;42.686;23.364;2023-07-13T09:07:32;14.00;;;10.68;;
20611;SDS011;10465;42.686;23.364;2023-07-13T09:10:18;11.43;;;9.52;;
20611;SDS011;10465;42.686;23.364;2023-07-13T09:13:16;19.27;;;10.50;;
20611;SDS011;10465;42.686;23.364;2023-07-13T09:15:52;13.23;;;10.27;;
20611;SDS011;10465;42.686;23.364;2023-07-13T09:23:23;12.25;;;9.15;;
20611;SDS011;10465;42.686;23.364;2023-07-13T09:25:53;12.18;;;9.38;;
20611;SDS011;10465;42.686;23.364;2023-07-13T09:28:28;11.77;;;9.27;;
20611;SDS011;10465;42.686;23.364;2023-07-13T09:31:33;17.00;;;9.80;;
20611;SDS011;10465;42.686;23.364;2023-07-13T09:34:08;13.60;;;9.40;;
20611;SDS011;10465;42.686;23.364;2023-07-13T09:36:35;12.88;;;9.60;;
20611;SDS011;10465;42.686;23.364;2023-07-13T09:46:36;13.63;;;10.10;;
20611;SDS011;10465;42.686;23.364;2023-07-13T09:49:03;14.00;;;8.88;;
20611;SDS011;10465;42.686;23.364;2023-07-13T09:51:29;13.75;;;10.43;;
20611;SDS011;10465;42.686;23.364;2023-07-13T09:53:54;13.30;;;10.05;;
20611;SDS011;10465;42.686;23.364;2023-07-13T09:56:24;12.63;;;10.27;;
20611;SDS011;10465;42.686;23.364;2023-07-13T09:58:53;12.57;;;10.02;;
20611;SDS011;10465;42.686;23.364;2023-07-13T10:01:52;12.27;;;9.93;;
20611;SDS011;10465;42.686;23.364;2023-07-13T10:04:14;13.65;;;10.02;;
20611;SDS011;10465;42.686;23.364;2023-07-13T10:06:46;15.30;;;10.15;;
20611;SDS011;10465;42.686;23.364;2023-07-13T10:09:16;17.90;;;10.40;;
20611;SDS011;10465;42.686;23.364;2023-07-13T10:11:42;11.80;;;9.32;;
20611;SDS011;10465;42.686;23.364;2023-07-13T10:16:37;13.73;;;10.00;;
20611;SDS011;10465;42.686;23.364;2023-07-13T10:19:15;11.93;;;9.40;;
20611;SDS011;10465;42.686;23.364;2023-07-13T10:24:25;14.13;;;10.00;;
20611;SDS011;10465;42.686;23.364;2023-07-13T10:26:53;12.70;;;9.45;;
20611;SDS011;10465;42.686;23.364;2023-07-13T10:30:06;11.88;;;9.93;;
20611;SDS011;10465;42.686;23.364;2023-07-13T10:32:45;15.30;;;10.02;;
20611;SDS011;10465;42.686;23.364;2023-07-13T10:35:13;11.68;;;8.00;;
20611;SDS011;10465;42.686;23.364;2023-07-13T10:37:45;11.55;;;7.40;;
20611;SDS011;10465;42.686;23.364;2023-07-13T10:40:13;8.18;;;7.38;;
20611;SDS011;10465;42.686;23.364;2023-07-13T10:42:42;11.38;;;7.32;;
20611;SDS011;10465;42.686;23.364;2023-07-13T10:45:14;7.50;;;6.38;;
20611;SDS011;10465;42.686;23.364;2023-07-13T10:47:41;9.05;;;5.57;;
20611;SDS011;10465;42.686;23.364;2023-07-13T10:50:09;7.45;;;5.22;;
20611;SDS011;10465;42.686;23.364;2023-07-13T10:58:21;9.45;;;5.78;;
20611;SDS011;10465;42.686;23.364;2023-07-13T11:03:28;9.52;;;5.28;;
20611;SDS011;10465;42.686;23.364;2023-07-13T11:08:57;7.97;;;5.28;;
20611;SDS011;10465;42.686;23.364;2023-07-13T11:11:33;8.20;;;5.65;;
20611;SDS011;10465;42.686;23.364;2023-07-13T11:14:04;8.82;;;5.05;;
20611;SDS011;10465;42.686;23.364;2023-07-13T11:16:49;7.90;;;5.32;;
20611;SDS011;10465;42.686;23.364;2023-07-13T11:30:31;7.75;;;5.05;;
20611;SDS011;10465;42.686;23.364;2023-07-13T11:35:33;8.10;;;5.22;;
20611;SDS011;10465;42.686;23.364;2023-07-13T11:38:01;12.82;;;5.43;;
20611;SDS011;10465;42.686;23.364;2023-07-13T11:40:28;10.70;;;5.03;;
20611;SDS011;10465;42.686;23.364;2023-07-13T11:43:01;8.98;;;5.97;;
20611;SDS011;10465;42.686;23.364;2023-07-13T11:45:31;9.45;;;5.95;;
20611;SDS011;10465;42.686;23.364;2023-07-13T11:47:57;9.38;;;5.57;;
20611;SDS011;10465;42.686;23.364;2023-07-13T11:50:25;8.50;;;6.10;;
20611;SDS011;10465;42.686;23.364;2023-07-13T11:52:51;11.50;;;5.20;;
20611;SDS011;10465;42.686;23.364;2023-07-13T11:55:20;10.70;;;6.00;;
20611;SDS011;10465;42.686;23.364;2023-07-13T11:57:56;11.45;;;5.95;;
20611;SDS011;10465;42.686;23.364;2023-07-13T12:00:29;8.82;;;5.82;;
20611;SDS011;10465;42.686;23.364;2023-07-13T12:02:59;8.02;;;5.75;;
20611;SDS011;10465;42.686;23.364;2023-07-13T12:05:26;7.53;;;6.13;;
20611;SDS011;10465;42.686;23.364;2023-07-13T12:07:52;10.43;;;5.88;;
20611;SDS011;10465;42.686;23.364;2023-07-13T12:10:23;10.23;;;6.15;;
20611;SDS011;10465;42.686;23.364;2023-07-13T12:13:05;10.68;;;6.55;;
20611;SDS011;10465;42.686;23.364;2023-07-13T12:15:36;8.50;;;6.00;;
20611;SDS011;10465;42.686;23.364;2023-07-13T12:18:14;8.98;;;5.68;;
20611;SDS011;10465;42.686;23.364;2023-07-13T12:20:43;10.57;;;5.75;;
20611;SDS011;10465;42.686;23.364;2023-07-13T12:23:52;11.15;;;6.32;;
20611;SDS011;10465;42.686;23.364;2023-07-13T12:26:03;7.18;;;5.25;;
20611;SDS011;10465;42.686;23.364;2023-07-13T12:28:35;8.02;;;5.38;;
20611;SDS011;10465;42.686;23.364;2023-07-13T12:31:04;7.15;;;5.47;;
20611;SDS011;10465;42.686;23.364;2023-07-13T12:33:32;7.28;;;5.38;;
20611;SDS011;10465;42.686;23.364;2023-07-13T12:36:01;8.98;;;5.90;;
20611;SDS011;10465;42.686;23.364;2023-07-13T12:38:31;10.32;;;5.45;;
20611;SDS011;10465;42.686;23.364;2023-07-13T12:40:57;7.60;;;5.40;;
20611;SDS011;10465;42.686;23.364;2023-07-13T12:43:23;9.27;;;4.82;;
20611;SDS011;10465;42.686;23.364;2023-07-13T12:46:03;9.43;;;5.18;;
20611;SDS011;10465;42.686;23.364;2023-07-13T12:48:41;10.02;;;5.50;;
20611;SDS011;10465;42.686;23.364;2023-07-13T12:51:11;9.38;;;5.28;;
20611;SDS011;10465;42.686;23.364;2023-07-13T12:53:42;10.32;;;5.53;;
20611;SDS011;10465;42.686;23.364;2023-07-13T12:56:24;8.48;;;5.00;;
20611;SDS011;10465;42.686;23.364;2023-07-13T12:58:58;8.18;;;5.85;;
20611;SDS011;10465;42.686;23.364;2023-07-13T13:01:27;9.18;;;6.13;;
20611;SDS011;10465;42.686;23.364;2023-07-13T13:03:54;9.80;;;5.82;;
20611;SDS011;10465;42.686;23.364;2023-07-13T13:06:25;12.02;;;5.60;;
20611;SDS011;10465;42.686;23.364;2023-07-13T13:08:52;8.70;;;4.97;;
20611;SDS011;10465;42.686;23.364;2023-07-13T13:11:21;10.70;;;6.70;;
20611;SDS011;10465;42.686;23.364;2023-07-13T13:13:48;8.40;;;6.95;;
20611;SDS011;10465;42.686;23.364;2023-07-13T13:16:21;11.65;;;6.43;;
20611;SDS011;10465;42.686;23.364;2023-07-13T13:18:47;10.52;;;6.20;;
20611;SDS011;10465;42.686;23.364;2023-07-13T13:21:15;10.25;;;6.00;;
20611;SDS011;10465;42.686;23.364;2023-07-13T13:23:41;10.23;;;6.90;;
20611;SDS011;10465;42.686;23.364;2023-07-13T13:26:09;12.00;;;6.88;;
20611;SDS011;10465;42.686;23.364;2023-07-13T13:28:36;16.20;;;6.90;;
20611;SDS011;10465;42.686;23.364;2023-07-13T13:31:01;12.00;;;6.88;;
20611;SDS011;10465;42.686;23.364;2023-07-13T13:33:27;15.10;;;6.68;;
20611;SDS011;10465;42.686;23.364;2023-07-13T13:35:52;12.05;;;6.13;;
20611;SDS011;10465;42.686;23.364;2023-07-13T13:38:23;9.48;;;6.53;;
20611;SDS011;10465;42.686;23.364;2023-07-13T13:40:51;9.95;;;6.68;;
20611;SDS011;10465;42.686;23.364;2023-07-13T13:43:18;8.52;;;5.32;;
20611;SDS011;10465;42.686;23.364;2023-07-13T13:45:51;13.27;;;5.07;;
20611;SDS011;10465;42.686;23.364;2023-07-13T13:48:18;11.30;;;5.90;;
20611;SDS011;10465;42.686;23.364;2023-07-13T13:50:46;7.97;;;5.28;;
20611;SDS011;10465;42.686;23.364;2023-07-13T13:53:12;13.57;;;5.60;;
20611;SDS011;10465;42.686;23.364;2023-07-13T13:55:38;10.63;;;5.32;;
20611;SDS011;10465;42.686;23.364;2023-07-13T13:58:07;7.80;;;4.80;;
20611;SDS011;10465;42.686;23.364;2023-07-13T14:00:34;8.93;;;4.75;;
20611;SDS011;10465;42.686;23.364;2023-07-13T14:03:00;9.73;;;4.95;;
20611;SDS011;10465;42.686;23.364;2023-07-13T14:05:25;11.98;;;4.90;;
20611;SDS011;10465;42.686;23.364;2023-07-13T14:07:51;12.10;;;5.82;;
20611;SDS011;10465;42.686;23.364;2023-07-13T14:10:18;10.82;;;4.30;;
20611;SDS011;10465;42.686;23.364;2023-07-13T14:12:45;12.70;;;4.95;;
20611;SDS011;10465;42.686;23.364;2023-07-13T14:15:28;6.50;;;5.13;;
20611;SDS011;10465;42.686;23.364;2023-07-13T14:17:55;9.13;;;6.00;;
20611;SDS011;10465;42.686;23.364;2023-07-13T14:20:23;13.23;;;6.30;;
20611;SDS011;10465;42.686;23.364;2023-07-13T14:22:50;11.25;;;5.70;;
20611;SDS011;10465;42.686;23.364;2023-07-13T14:25:18;8.75;;;5.53;;
20611;SDS011;10465;42.686;23.364;2023-07-13T14:27:44;10.50;;;5.35;;
20611;SDS011;10465;42.686;23.364;2023-07-13T14:32:41;8.32;;;4.90;;
20611;SDS011;10465;42.686;23.364;2023-07-13T14:35:07;7.43;;;5.07;;
20611;SDS011;10465;42.686;23.364;2023-07-13T14:37:42;12.07;;;5.60;;
20611;SDS011;10465;42.686;23.364;2023-07-13T14:40:42;13.38;;;5.43;;
20611;SDS011;10465;42.686;23.364;2023-07-13T14:43:01;9.75;;;5.03;;
20611;SDS011;10465;42.686;23.364;2023-07-13T14:45:26;10.20;;;5.18;;
20611;SDS011;10465;42.686;23.364;2023-07-13T14:47:53;8.88;;;5.18;;
20611;SDS011;10465;42.686;23.364;2023-07-13T14:50:24;10.65;;;5.53;;
20611;SDS011;10465;42.686;23.364;2023-07-13T14:52:55;9.00;;;5.10;;
20611;SDS011;10465;42.686;23.364;2023-07-13T14:55:21;10.70;;;5.13;;
20611;SDS011;10465;42.686;23.364;2023-07-13T14:57:46;9.85;;;5.25;;
20611;SDS011;10465;42.686;23.364;2023-07-13T15:00:17;9.95;;;5.07;;
20611;SDS011;10465;42.686;23.364;2023-07-13T15:02:45;9.10;;;4.80;;
20611;SDS011;10465;42.686;23.364;2023-07-13T15:05:22;9.95;;;5.35;;
20611;SDS011;10465;42.686;23.364;2023-07-13T15:07:56;9.50;;;5.05;;
20611;SDS011;10465;42.686;23.364;2023-07-13T15:10:23;10.82;;;5.68;;
20611;SDS011;10465;42.686;23.364;2023-07-13T15:13:01;9.65;;;5.30;;
20611;SDS011;10465;42.686;23.364;2023-07-13T15:15:39;9.55;;;5.22;;
20611;SDS011;10465;42.686;23.364;2023-07-13T15:18:11;8.95;;;5.00;;
20611;SDS011;10465;42.686;23.364;2023-07-13T15:20:39;8.48;;;5.68;;
20611;SDS011;10465;42.686;23.364;2023-07-13T15:23:04;11.45;;;5.35;;